Time;durP1;ratioP1;P1;durP2;ratioP2;P2;SDS_P1;SDS_P2;PMS_P1;PMS_P2;Temp;Humidity;BMP_temperature;BMP_pressure;BME280_temperature;BME280_humidity;BME280_pressure;Samples;Min_cycle;Max_cycle;Signal;HPM_P1;HPM_P2
2020/12/09 00:00:47;;;;;;;87.57;35.17;;;;;;;0.32;87.61;100041.13;5074401;28;20218;-68
2020/12/09 00:03:13;;;;;;;81.30;32.70;;;;;;;0.36;87.99;100047.13;5070376;28;20201;-67
2020/12/09 00:05:39;;;;;;;84.23;32.80;;;;;;;0.38;88.02;100045.31;5072270;28;20205;-67
2020/12/09 00:08:05;;;;;;;84.13;34.30;;;;;;;0.42;87.91;100048.69;5071616;28;20386;-66
2020/12/09 00:10:32;;;;;;;91.07;34.80;;;;;;;0.44;87.95;100049.50;5078297;28;20214;-67
2020/12/09 00:12:58;;;;;;;92.50;35.93;;;;;;;0.46;87.91;100056.41;5081053;28;20212;-67
2020/12/09 00:15:25;;;;;;;91.00;35.63;;;;;;;0.49;87.85;100055.47;5077814;28;20204;-67
2020/12/09 00:17:51;;;;;;;79.20;34.97;;;;;;;0.51;87.94;100058.91;5089090;28;20226;-67
2020/12/09 00:20:17;;;;;;;84.93;34.17;;;;;;;0.54;87.85;100056.16;5084118;28;20201;-67
2020/12/09 00:22:43;;;;;;;81.40;34.27;;;;;;;0.56;88.03;100068.31;5074468;28;20201;-67
2020/12/09 00:25:09;;;;;;;87.13;36.10;;;;;;;0.57;88.02;100062.16;5075495;28;20233;-67
2020/12/09 00:27:36;;;;;;;76.37;33.40;;;;;;;0.59;88.23;100059.50;5090944;28;20223;-67
2020/12/09 00:30:04;;;;;;;76.93;33.50;;;;;;;0.60;88.00;100058.59;5076335;28;20197;-67
2020/12/09 00:32:31;;;;;;;77.60;33.23;;;;;;;0.62;88.17;100068.13;5070357;28;20216;-67
2020/12/09 00:34:57;;;;;;;77.83;32.97;;;;;;;0.64;87.99;100068.94;5088368;28;20196;-67
2020/12/09 00:37:23;;;;;;;81.37;34.20;;;;;;;0.65;88.12;100073.28;5083712;28;20682;-67
2020/12/09 00:39:49;;;;;;;77.37;34.13;;;;;;;0.67;88.42;100075.84;5084386;28;20687;-67
2020/12/09 00:42:15;;;;;;;83.40;34.20;;;;;;;0.67;87.88;100066.22;5084900;28;20684;-67
2020/12/09 00:44:41;;;;;;;79.87;35.17;;;;;;;0.69;88.40;100063.56;5090392;28;20230;-67
2020/12/09 00:47:07;;;;;;;81.10;35.07;;;;;;;0.72;88.51;100063.44;5111821;22;20233;-63
2020/12/09 00:49:53;;;;;;;85.20;35.07;;;;;;;0.74;88.51;100066.00;5072237;28;20299;-65
2020/12/09 00:52:20;;;;;;;83.03;35.83;;;;;;;0.77;88.35;100065.91;5070608;28;20620;-66
2020/12/09 00:54:46;;;;;;;89.30;35.93;;;;;;;0.77;88.33;100068.53;5073567;28;20250;-66
2020/12/09 00:57:12;;;;;;;77.77;34.83;;;;;;;0.79;88.26;100074.56;5072392;28;20216;-66
2020/12/09 00:59:38;;;;;;;85.13;34.23;;;;;;;0.81;88.32;100064.91;5053994;28;20208;-66
2020/12/09 01:02:04;;;;;;;82.53;34.60;;;;;;;0.82;88.72;100069.25;5053324;28;20229;-66
2020/12/09 01:04:31;;;;;;;84.20;35.83;;;;;;;0.83;88.39;100066.56;5053088;28;20271;-66
2020/12/09 01:06:58;;;;;;;93.57;38.17;;;;;;;0.86;88.46;100068.25;5053207;28;20209;-66
2020/12/09 01:09:24;;;;;;;93.33;38.20;;;;;;;0.88;88.43;100069.06;5053890;28;20669;-66
2020/12/09 01:11:50;;;;;;;94.43;39.03;;;;;;;0.90;88.29;100067.22;5051871;28;20209;-66
2020/12/09 01:14:16;;;;;;;90.80;37.13;;;;;;;0.91;88.55;100080.25;5053895;28;20233;-66
2020/12/09 01:16:42;;;;;;;95.70;36.43;;;;;;;0.93;88.04;100083.69;5053482;28;20210;-66
2020/12/09 01:19:08;;;;;;;92.50;38.07;;;;;;;0.95;88.43;100083.66;5053495;28;20226;-66
2020/12/09 01:21:34;;;;;;;91.97;39.53;;;;;;;0.96;88.33;100085.38;5053499;28;20213;-65
2020/12/09 01:24:01;;;;;;;100.33;38.83;;;;;;;0.97;88.36;100085.31;5051859;28;20218;-67
2020/12/09 01:26:27;;;;;;;98.67;39.77;;;;;;;1.00;88.44;100084.38;5052875;28;20206;-66
2020/12/09 01:28:54;;;;;;;87.17;37.70;;;;;;;1.01;88.61;100080.84;5052547;28;20229;-66
2020/12/09 01:31:21;;;;;;;82.23;36.07;;;;;;;1.03;88.42;100086.88;5053608;28;20240;-66
2020/12/09 01:33:47;;;;;;;90.80;38.20;;;;;;;1.04;88.29;100078.13;5051040;28;20209;-66
2020/12/09 01:36:13;;;;;;;87.10;37.70;;;;;;;1.06;88.37;100083.31;5053589;28;20232;-66
2020/12/09 01:38:39;;;;;;;91.97;37.10;;;;;;;1.06;88.53;100092.03;5053180;28;20265;-66
2020/12/09 01:41:06;;;;;;;93.73;37.63;;;;;;;1.06;88.34;100086.78;5053081;28;20205;-67
2020/12/09 01:43:43;;;;;;;92.43;37.93;;;;;;;1.06;88.52;100086.78;5052446;28;20252;-66
2020/12/09 01:46:11;;;;;;;91.07;38.13;;;;;;;1.07;88.51;100083.25;5052494;28;20232;-66
2020/12/09 01:48:38;;;;;;;102.47;38.57;;;;;;;1.09;88.45;100088.44;5052282;28;20245;-66
2020/12/09 01:51:04;;;;;;;98.37;38.43;;;;;;;1.09;88.74;100076.16;5051975;28;20213;-67
2020/12/09 01:53:30;;;;;;;96.80;37.93;;;;;;;1.11;88.80;100084.84;5051534;28;20259;-66
2020/12/09 01:55:56;;;;;;;88.33;36.63;;;;;;;1.12;88.59;100077.84;5051887;28;20239;-66
2020/12/09 01:58:23;;;;;;;92.83;37.97;;;;;;;1.12;88.79;100086.56;5051986;28;20225;-66
2020/12/09 02:00:49;;;;;;;87.53;38.23;;;;;;;1.15;88.62;100089.09;5050408;28;20216;-67
2020/12/09 02:03:15;;;;;;;91.00;36.33;;;;;;;1.16;88.22;100092.56;5052657;28;20209;-66
2020/12/09 02:05:42;;;;;;;86.37;36.83;;;;;;;1.17;88.37;100081.16;5052253;28;20232;-67
2020/12/09 02:08:08;;;;;;;89.97;38.13;;;;;;;1.17;88.55;100073.31;5052727;28;20304;-66
2020/12/09 02:10:34;;;;;;;90.57;37.33;;;;;;;1.18;88.64;100078.50;5052311;28;20339;-66
2020/12/09 02:13:00;;;;;;;100.53;38.20;;;;;;;1.19;88.35;100072.34;5052542;28;20210;-66
2020/12/09 02:15:27;;;;;;;92.03;39.43;;;;;;;1.19;88.74;100074.97;5051394;28;20236;-64
2020/12/09 02:17:53;;;;;;;102.70;38.63;;;;;;;1.20;88.42;100079.31;5052476;28;20229;-66
2020/12/09 02:20:20;;;;;;;93.13;39.13;;;;;;;1.21;88.14;100072.28;5052953;28;20237;-66
2020/12/09 02:22:52;;;;;;;94.10;38.63;;;;;;;1.23;88.78;100081.84;5051464;28;20246;-67
2020/12/09 02:25:18;;;;;;;91.80;37.83;;;;;;;1.24;88.60;100074.81;5052180;28;20225;-66
2020/12/09 02:27:45;;;;;;;93.77;39.80;;;;;;;1.26;89.18;100065.09;5050369;28;20286;-68
2020/12/09 02:30:11;;;;;;;90.30;36.67;;;;;;;1.26;88.52;100071.19;5042191;28;20237;-66
2020/12/09 02:32:37;;;;;;;95.13;38.47;;;;;;;1.27;88.97;100065.06;5051167;28;20285;-67
2020/12/09 02:35:04;;;;;;;90.53;38.00;;;;;;;1.28;88.61;100064.16;5052116;28;20216;-66
2020/12/09 02:37:31;;;;;;;94.20;37.93;;;;;;;1.28;89.00;100050.16;5051621;28;20249;-67
2020/12/09 02:39:58;;;;;;;93.70;38.27;;;;;;;1.29;88.52;100060.63;5051428;28;20288;-66
2020/12/09 02:42:24;;;;;;;96.30;37.93;;;;;;;1.30;88.54;100059.69;5050752;28;20283;-66
2020/12/09 02:44:50;;;;;;;89.37;39.33;;;;;;;1.32;88.56;100062.28;5050925;28;20291;-67
2020/12/09 02:47:16;;;;;;;96.90;38.33;;;;;;;1.32;88.80;100065.75;5051898;28;20250;-67
2020/12/09 02:49:43;;;;;;;99.90;40.03;;;;;;;1.34;88.47;100071.81;5051667;28;20244;-67
2020/12/09 02:52:09;;;;;;;96.00;37.97;;;;;;;1.35;88.90;100080.53;5037975;28;20296;-66
2020/12/09 02:54:35;;;;;;;96.63;38.87;;;;;;;1.36;88.62;100077.88;5040363;28;20198;-67
2020/12/09 02:57:02;;;;;;;87.93;37.97;;;;;;;1.38;88.71;100083.91;5049342;28;20225;-67
2020/12/09 02:59:28;;;;;;;88.57;37.87;;;;;;;1.41;88.72;100087.34;5051862;28;20257;-66
2020/12/09 03:01:54;;;;;;;97.80;39.67;;;;;;;1.42;88.58;100081.19;5051005;28;20244;-66
2020/12/09 03:04:20;;;;;;;98.37;38.83;;;;;;;1.44;88.90;100089.84;5043919;28;20225;-67
2020/12/09 03:06:46;;;;;;;97.83;40.17;;;;;;;1.46;88.63;100095.91;5051008;28;20255;-67
2020/12/09 03:09:12;;;;;;;102.20;40.73;;;;;;;1.47;89.22;100102.84;5056780;28;20308;-66
2020/12/09 03:11:38;;;;;;;103.80;40.17;;;;;;;1.48;88.70;100100.19;5052017;28;20206;-67
2020/12/09 03:14:05;;;;;;;99.23;40.57;;;;;;;1.49;88.58;100101.91;5051413;28;20232;-66
2020/12/09 03:16:32;;;;;;;111.47;41.37;;;;;;;1.52;89.03;100111.44;5051261;28;20284;-67
2020/12/09 03:18:59;;;;;;;100.47;38.00;;;;;;;1.52;88.94;100103.56;5047080;28;20221;-66
2020/12/09 03:21:25;;;;;;;108.87;41.60;;;;;;;1.54;88.46;100102.59;5051021;28;20570;-67
2020/12/09 03:23:51;;;;;;;102.10;41.20;;;;;;;1.54;88.82;100105.22;5050073;28;20206;-66
2020/12/09 03:26:17;;;;;;;106.43;38.80;;;;;;;1.56;88.64;100100.78;5049763;28;20243;-66
2020/12/09 03:28:44;;;;;;;107.50;41.20;;;;;;;1.58;88.63;100098.09;5050720;28;20279;-66
2020/12/09 03:31:11;;;;;;;111.40;40.87;;;;;;;1.59;88.94;100095.44;5051038;28;20275;-65
2020/12/09 03:33:37;;;;;;;105.83;41.47;;;;;;;1.61;88.67;100090.97;5050681;28;20205;-65
2020/12/09 03:36:04;;;;;;;110.23;41.10;;;;;;;1.62;88.92;100091.81;5050662;28;20255;-66
2020/12/09 03:38:30;;;;;;;106.60;39.93;;;;;;;1.64;88.73;100092.63;5051264;28;20225;-65
2020/12/09 03:40:56;;;;;;;110.50;41.73;;;;;;;1.65;88.78;100083.84;5050141;28;20236;-65
2020/12/09 03:43:22;;;;;;;97.90;37.27;;;;;;;1.66;88.85;100085.56;5050352;28;20288;-65
2020/12/09 03:45:48;;;;;;;113.20;42.93;;;;;;;1.70;88.46;100084.53;5051146;28;20225;-67
2020/12/09 03:48:15;;;;;;;100.70;39.10;;;;;;;1.70;88.42;100092.41;5050564;28;20260;-65
2020/12/09 03:50:41;;;;;;;118.33;42.73;;;;;;;1.71;88.55;100107.25;5047327;28;20670;-66
2020/12/09 03:53:08;;;;;;;109.47;41.43;;;;;;;1.72;88.55;100098.47;5054516;28;20734;-67
2020/12/09 03:55:34;;;;;;;97.93;37.40;;;;;;;1.71;88.69;100094.13;5054890;28;20259;-65
2020/12/09 03:58:00;;;;;;;104.53;39.23;;;;;;;1.70;88.73;100090.66;5054982;28;20308;-68
2020/12/09 04:00:26;;;;;;;101.97;40.57;;;;;;;1.71;88.78;100091.50;5056346;28;20674;-66
2020/12/09 04:02:53;;;;;;;101.63;39.63;;;;;;;1.71;89.13;100086.25;5054205;28;20206;-66
2020/12/09 04:05:20;;;;;;;105.93;40.63;;;;;;;1.71;88.62;100095.00;5054165;28;20276;-67
2020/12/09 04:07:46;;;;;;;103.73;39.53;;;;;;;1.72;89.24;100091.44;5054999;28;20229;-66
2020/12/09 04:10:12;;;;;;;105.80;41.00;;;;;;;1.72;88.97;100091.44;5053948;28;20205;-65
2020/12/09 04:12:38;;;;;;;99.20;39.27;;;;;;;1.73;88.54;100100.19;5054463;28;20304;-66
2020/12/09 04:15:05;;;;;;;111.23;41.73;;;;;;;1.74;88.64;100110.63;5055310;28;20677;-67
2020/12/09 04:17:31;;;;;;;103.87;41.40;;;;;;;1.74;88.80;100105.38;5054949;28;20603;-66
2020/12/09 04:19:57;;;;;;;105.13;41.00;;;;;;;1.76;88.65;100115.81;5055594;28;20236;-66
2020/12/09 04:22:24;;;;;;;103.10;40.47;;;;;;;1.77;88.71;100129.81;5052954;28;20241;-66
2020/12/09 04:24:50;;;;;;;100.33;40.73;;;;;;;1.77;88.36;100122.78;5055599;28;20264;-66
2020/12/09 04:27:17;;;;;;;93.13;37.97;;;;;;;1.78;88.94;100115.78;5053582;28;20305;-65
2020/12/09 04:29:43;;;;;;;98.17;38.93;;;;;;;1.77;88.58;100116.69;5047372;28;20663;-66
2020/12/09 04:32:09;;;;;;;107.50;39.33;;;;;;;1.78;88.33;100121.88;5047754;28;20735;-66
2020/12/09 04:34:35;;;;;;;103.13;40.27;;;;;;;1.78;88.57;100116.63;5035415;28;20198;-66
2020/12/09 04:37:02;;;;;;;109.10;39.30;;;;;;;1.78;88.88;100124.50;5046938;28;20240;-65
2020/12/09 04:39:29;;;;;;;101.87;39.70;;;;;;;1.79;88.77;100120.13;5053358;28;20305;-66
2020/12/09 04:41:55;;;;;;;111.47;38.83;;;;;;;1.77;88.99;100114.06;5052973;28;20566;-66
2020/12/09 04:44:23;;;;;;;105.43;41.53;;;;;;;1.77;88.45;100114.06;5052915;28;20234;-66
2020/12/09 04:46:51;;;;;;;110.50;42.13;;;;;;;1.78;88.87;100114.00;5054316;28;20297;-66
2020/12/09 04:49:19;;;;;;;110.90;41.37;;;;;;;1.81;88.48;100121.75;5053267;28;20237;-66
2020/12/09 04:52:11;;;;;;;110.83;42.00;;;;;;;1.83;88.73;100119.06;5052946;28;20260;-65
2020/12/09 04:54:40;;;;;;;109.60;39.90;;;;;;;1.83;88.57;100112.06;5053207;28;20240;-66
2020/12/09 04:57:12;;;;;;;115.50;42.40;;;;;;;1.85;88.71;100115.47;5053474;28;20210;-65
2020/12/09 04:59:40;;;;;;;105.27;40.53;;;;;;;1.86;88.58;100109.31;5050477;28;20260;-66
2020/12/09 05:02:08;;;;;;;102.13;40.70;;;;;;;1.87;88.36;100113.66;5044764;28;20682;-65
2020/12/09 05:04:35;;;;;;;103.67;39.97;;;;;;;1.87;88.35;100105.78;5040692;28;20642;-64
2020/12/09 05:07:06;;;;;;;97.30;39.50;;;;;;;1.86;88.48;100098.81;5043853;28;20849;-66
2020/12/09 05:09:43;;;;;;;110.10;40.70;;;;;;;1.87;88.79;100094.44;5053820;28;20688;-66
2020/12/09 05:12:13;;;;;;;103.23;40.33;;;;;;;1.88;88.98;100096.13;5042516;28;20197;-66
2020/12/09 05:14:45;;;;;;;103.53;41.17;;;;;;;1.88;88.71;100102.25;5053619;28;20208;-65
2020/12/09 05:17:16;;;;;;;106.93;40.27;;;;;;;1.89;88.58;100101.34;5049117;28;20724;-66
2020/12/09 05:19:43;;;;;;;105.13;38.70;;;;;;;1.91;88.75;100111.78;5047171;28;20264;-66
2020/12/09 05:22:14;;;;;;;106.13;41.83;;;;;;;1.91;88.44;100114.41;5044834;28;20657;-65
2020/12/09 05:24:40;;;;;;;109.30;42.97;;;;;;;1.91;88.28;100117.91;5050486;28;20233;-66
2020/12/09 05:27:07;;;;;;;103.83;39.97;;;;;;;1.91;88.49;100106.53;5046508;28;20685;-65
2020/12/09 05:29:33;;;;;;;102.57;42.00;;;;;;;1.91;88.33;100112.66;5053402;28;20206;-67
2020/12/09 05:32:01;;;;;;;105.70;40.13;;;;;;;1.91;88.62;100123.16;5044140;28;20216;-66
2020/12/09 05:34:29;;;;;;;109.13;42.17;;;;;;;1.92;88.25;100117.00;5052643;28;20198;-66
2020/12/09 05:36:57;;;;;;;109.30;41.87;;;;;;;1.93;89.17;100109.97;5043501;28;20205;-66
2020/12/09 05:39:24;;;;;;;109.63;42.90;;;;;;;1.94;88.79;100114.31;5052282;28;20618;-67
2020/12/09 05:41:50;;;;;;;105.33;40.43;;;;;;;1.95;88.63;100119.50;5047825;28;20209;-66
2020/12/09 05:44:18;;;;;;;104.90;42.67;;;;;;;1.95;88.38;100124.75;5036202;28;20600;-66
2020/12/09 05:46:59;;;;;;;106.37;41.43;;;;;;;1.97;88.29;100122.91;5051422;28;20237;-66
2020/12/09 05:49:28;;;;;;;108.50;42.10;;;;;;;1.98;89.07;100132.50;5052354;28;20255;-66
2020/12/09 05:52:05;;;;;;;105.30;41.40;;;;;;;1.99;88.66;100135.97;5037918;28;20241;-66
2020/12/09 05:54:31;;;;;;;108.07;42.37;;;;;;;1.99;88.89;100131.59;5038236;28;20652;-66
2020/12/09 05:56:57;;;;;;;108.93;41.43;;;;;;;1.99;88.72;100126.34;5035199;28;20647;-66
2020/12/09 05:59:35;;;;;;;111.17;42.77;;;;;;;2.02;89.13;100128.00;5035419;28;20659;-66
2020/12/09 06:02:11;;;;;;;105.53;42.07;;;;;;;2.03;88.32;100127.09;5036083;28;20293;-64
2020/12/09 06:04:55;;;;;;;103.83;40.17;;;;;;;2.06;88.76;100134.84;5035801;28;20233;-65
2020/12/09 06:07:22;;;;;;;104.40;41.20;;;;;;;2.07;88.38;100129.56;5035896;28;20589;-65
2020/12/09 06:10:03;;;;;;;104.47;42.33;;;;;;;2.09;88.55;100142.63;5035580;28;20579;-65
2020/12/09 06:12:29;;;;;;;96.00;40.80;;;;;;;2.09;88.30;100138.25;5048953;28;20217;-65
2020/12/09 06:15:14;;;;;;;106.03;42.50;;;;;;;2.11;88.57;100155.72;5039305;28;20644;-65
2020/12/09 06:17:40;;;;;;;102.53;41.87;;;;;;;2.12;88.42;100149.53;5036990;28;20288;-65
2020/12/09 06:20:06;;;;;;;108.63;42.47;;;;;;;2.13;88.28;100146.00;5038590;28;20615;-65
2020/12/09 06:22:32;;;;;;;111.77;42.67;;;;;;;2.13;88.47;100144.25;5041645;28;20687;-65
2020/12/09 06:25:02;;;;;;;96.73;40.13;;;;;;;2.14;88.16;100155.59;5036119;28;20222;-66
2020/12/09 06:27:31;;;;;;;100.67;41.07;;;;;;;2.13;88.88;100161.78;5036212;28;20226;-66
2020/12/09 06:29:57;;;;;;;102.50;41.53;;;;;;;2.15;88.54;100157.31;5052500;28;20212;-66
2020/12/09 06:32:24;;;;;;;106.50;42.10;;;;;;;2.15;88.91;100152.88;5050059;28;20781;-66
2020/12/09 06:35:04;;;;;;;100.17;42.20;;;;;;;2.19;88.57;100156.28;5049683;28;20255;-66
2020/12/09 06:37:31;;;;;;;102.33;42.33;;;;;;;2.21;88.75;100154.44;5050236;28;20788;-66
2020/12/09 06:40:07;;;;;;;101.77;43.53;;;;;;;2.23;88.20;100160.50;5049009;28;20275;-66
2020/12/09 06:42:33;;;;;;;107.03;41.73;;;;;;;2.23;88.50;100158.72;5050286;28;20201;-66
2020/12/09 06:45:01;;;;;;;107.43;42.43;;;;;;;2.24;87.88;100159.59;5049356;28;20233;-66
2020/12/09 06:47:34;;;;;;;111.27;43.37;;;;;;;2.23;88.07;100150.84;5050528;28;20740;-70
2020/12/09 06:50:01;;;;;;;105.63;41.57;;;;;;;2.24;88.93;100147.31;5049635;28;20288;-66
2020/12/09 06:52:45;;;;;;;102.57;42.93;;;;;;;2.26;88.41;100148.13;5049216;28;20197;-66
2020/12/09 06:55:19;;;;;;;104.53;42.63;;;;;;;2.28;88.05;100142.81;5051510;28;20262;-66
2020/12/09 06:57:45;;;;;;;98.43;41.53;;;;;;;2.28;88.19;100148.06;5050831;28;20605;-65
2020/12/09 07:00:29;;;;;;;101.97;41.13;;;;;;;2.30;88.74;100151.50;5051486;28;20331;-66
2020/12/09 07:02:56;;;;;;;104.47;41.90;;;;;;;2.31;88.39;100159.31;5064223;28;20287;-65
2020/12/09 07:05:30;;;;;;;104.03;41.43;;;;;;;2.33;88.46;100156.63;5057160;28;20225;-65
2020/12/09 07:08:01;;;;;;;105.03;43.63;;;;;;;2.36;88.07;100180.16;5051669;28;20256;-65
2020/12/09 07:10:29;;;;;;;102.80;42.17;;;;;;;2.37;88.02;100179.22;5052403;28;20212;-66
2020/12/09 07:13:10;;;;;;;109.27;43.87;;;;;;;2.38;88.22;100173.94;5051233;28;20220;-65
2020/12/09 07:15:38;;;;;;;103.87;42.33;;;;;;;2.38;88.03;100167.81;5051264;28;20216;-66
2020/12/09 07:18:07;;;;;;;107.20;43.50;;;;;;;2.40;88.65;100173.88;5051617;28;20253;-66
2020/12/09 07:20:33;;;;;;;104.20;43.10;;;;;;;2.39;88.65;100177.41;5051867;28;20893;-66
2020/12/09 07:22:59;;;;;;;96.73;40.80;;;;;;;2.41;88.25;100180.84;5051800;28;20202;-65
2020/12/09 07:25:25;;;;;;;99.40;42.60;;;;;;;2.41;88.24;100183.47;5049953;28;20241;-66
2020/12/09 07:27:53;;;;;;;101.97;42.00;;;;;;;2.42;88.38;100187.81;5051940;28;20249;-66
2020/12/09 07:30:20;;;;;;;102.00;42.47;;;;;;;2.42;88.26;100193.06;5051247;28;20255;-65
2020/12/09 07:32:48;;;;;;;99.50;42.70;;;;;;;2.43;88.50;100194.78;5051192;28;20205;-66
2020/12/09 07:35:17;;;;;;;111.43;44.07;;;;;;;2.44;88.14;100199.13;5051692;28;20228;-66
2020/12/09 07:37:45;;;;;;;105.90;43.10;;;;;;;2.45;88.36;100198.22;5051396;28;20225;-66
2020/12/09 07:40:14;;;;;;;107.40;43.40;;;;;;;2.45;88.03;100200.84;5051622;28;20216;-66
2020/12/09 07:42:40;;;;;;;102.57;41.03;;;;;;;2.48;87.90;100210.41;5050672;28;20640;-65
2020/12/09 07:45:12;;;;;;;102.00;43.10;;;;;;;2.48;87.59;100210.41;5051507;28;20316;-66
2020/12/09 07:47:39;;;;;;;99.67;43.20;;;;;;;2.47;88.55;100209.53;5051204;28;20237;-66
2020/12/09 07:50:07;;;;;;;108.60;45.07;;;;;;;2.47;88.21;100206.91;5051618;28;20212;-65
2020/12/09 07:52:36;;;;;;;99.83;43.07;;;;;;;2.48;88.21;100213.03;5051010;28;20198;-66
2020/12/09 07:55:05;;;;;;;108.37;43.40;;;;;;;2.49;87.53;100206.84;5051578;28;20205;-65
2020/12/09 07:57:33;;;;;;;105.50;43.73;;;;;;;2.49;87.51;100212.97;5050992;28;20226;-66
2020/12/09 08:00:00;;;;;;;96.23;40.13;;;;;;;2.51;88.18;100207.66;5046319;28;20207;-65
2020/12/09 08:02:28;;;;;;;94.90;40.80;;;;;;;2.51;87.87;100199.78;5042073;28;20204;-66
2020/12/09 08:05:16;;;;;;;92.90;39.53;;;;;;;2.50;87.91;100198.91;5051510;28;20226;-66
2020/12/09 08:07:54;;;;;;;98.20;39.80;;;;;;;2.49;88.35;100188.44;5045905;28;20268;-66
2020/12/09 08:10:26;;;;;;;94.10;40.47;;;;;;;2.47;88.21;100187.66;5051162;28;20212;-66
2020/12/09 08:13:03;;;;;;;92.83;39.87;;;;;;;2.46;87.82;100178.91;5043730;28;20201;-66
2020/12/09 08:15:30;;;;;;;103.40;42.10;;;;;;;2.46;88.08;100181.53;5050498;28;20204;-66
2020/12/09 08:17:56;;;;;;;101.30;42.37;;;;;;;2.47;88.27;100185.03;5051186;28;20229;-66
2020/12/09 08:20:23;;;;;;;102.57;42.37;;;;;;;2.47;87.38;100185.03;5047265;28;20213;-66
2020/12/09 08:22:55;;;;;;;108.83;43.37;;;;;;;2.47;87.68;100193.75;5041565;28;20205;-67
2020/12/09 08:25:22;;;;;;;100.97;42.23;;;;;;;2.48;88.08;100192.00;5050879;28;21705;-66
2020/12/09 08:27:48;;;;;;;105.30;41.23;;;;;;;2.49;87.40;100193.72;5051400;28;20272;-65
2020/12/09 08:30:20;;;;;;;99.47;40.97;;;;;;;2.48;87.78;100203.38;5050479;28;20293;-67
2020/12/09 08:33:17;;;;;;;95.83;42.43;;;;;;;2.50;88.14;100208.56;5050808;28;20237;-66
2020/12/09 08:35:49;;;;;;;98.87;42.53;;;;;;;2.49;87.92;100212.09;5050085;28;20232;-66
2020/12/09 08:38:25;;;;;;;100.30;41.33;;;;;;;2.51;87.70;100226.06;5043800;28;20258;-65
2020/12/09 08:40:52;;;;;;;96.37;41.17;;;;;;;2.51;87.69;100229.50;5053412;28;20220;-65
2020/12/09 08:43:19;;;;;;;98.90;40.33;;;;;;;2.52;87.49;100233.00;5054223;28;20248;-66
2020/12/09 08:45:46;;;;;;;112.13;44.40;;;;;;;2.53;87.47;100240.81;5054116;28;20312;-66
2020/12/09 08:48:12;;;;;;;102.60;43.00;;;;;;;2.55;88.00;100238.16;5054544;28;20236;-66
2020/12/09 08:50:38;;;;;;;99.83;42.53;;;;;;;2.54;87.21;100245.19;5054288;28;20237;-65
2020/12/09 08:53:05;;;;;;;101.47;43.53;;;;;;;2.56;87.02;100240.72;5054382;28;20241;-67
2020/12/09 08:55:32;;;;;;;101.47;42.50;;;;;;;2.56;87.36;100235.47;5053886;28;20201;-66
2020/12/09 08:57:58;;;;;;;108.90;43.80;;;;;;;2.60;87.16;100236.22;5053882;28;20275;-66
2020/12/09 09:00:24;;;;;;;103.53;42.73;;;;;;;2.60;88.00;100244.97;5054955;28;20202;-66
2020/12/09 09:02:50;;;;;;;109.33;42.27;;;;;;;2.60;87.82;100244.09;5053884;28;20205;-66
2020/12/09 09:05:16;;;;;;;98.93;41.67;;;;;;;2.60;88.00;100242.31;5045111;28;20351;-65
2020/12/09 09:07:42;;;;;;;104.27;43.77;;;;;;;2.63;87.29;100249.25;5054126;28;20287;-66
2020/12/09 09:10:09;;;;;;;105.47;43.77;;;;;;;2.64;87.94;100253.59;5053165;28;20206;-66
2020/12/09 09:12:36;;;;;;;95.03;42.07;;;;;;;2.64;87.55;100257.09;5054048;28;20240;-65
2020/12/09 09:15:02;;;;;;;101.43;41.73;;;;;;;2.65;87.55;100269.31;5053336;28;20237;-65
2020/12/09 09:17:28;;;;;;;101.23;42.17;;;;;;;2.66;87.81;100263.16;5054106;28;20308;-67
2020/12/09 09:19:54;;;;;;;100.70;42.77;;;;;;;2.67;87.61;100267.50;5053831;28;20263;-66
2020/12/09 09:22:20;;;;;;;107.80;42.07;;;;;;;2.69;86.99;100270.88;5040234;28;20204;-67
2020/12/09 09:24:46;;;;;;;103.80;43.77;;;;;;;2.72;87.05;100275.19;5053280;28;20711;-66
2020/12/09 09:27:12;;;;;;;102.63;42.73;;;;;;;2.74;87.58;100270.72;5053308;28;20224;-66
2020/12/09 09:29:39;;;;;;;111.30;43.03;;;;;;;2.76;87.33;100272.38;5054266;28;20206;-66
2020/12/09 09:32:06;;;;;;;104.80;43.43;;;;;;;2.78;87.46;100272.34;5051681;28;20214;-66
2020/12/09 09:34:32;;;;;;;107.57;44.77;;;;;;;2.79;87.56;100263.53;5053645;28;20285;-66
2020/12/09 09:36:59;;;;;;;100.57;43.07;;;;;;;2.81;86.87;100268.75;5052748;28;20212;-66
2020/12/09 09:39:25;;;;;;;109.27;43.07;;;;;;;2.82;87.18;100273.09;5054277;28;20230;-66
2020/12/09 09:41:55;;;;;;;104.93;46.03;;;;;;;2.82;87.72;100267.81;5053106;28;20237;-67
2020/12/09 09:44:21;;;;;;;112.13;43.93;;;;;;;2.84;86.80;100269.50;5053004;28;20205;-66
2020/12/09 09:46:48;;;;;;;116.03;45.40;;;;;;;2.85;87.55;100273.84;5053379;28;20316;-66
2020/12/09 09:49:14;;;;;;;112.43;44.40;;;;;;;2.88;87.31;100275.47;5052274;28;20264;-66
2020/12/09 09:51:40;;;;;;;111.00;45.03;;;;;;;2.89;86.99;100282.44;5053373;28;20237;-67
2020/12/09 09:54:07;;;;;;;109.07;43.13;;;;;;;2.90;86.91;100278.91;5052751;28;20259;-66
2020/12/09 09:56:33;;;;;;;116.67;43.70;;;;;;;2.92;87.15;100277.94;5053538;28;20209;-67
2020/12/09 09:58:59;;;;;;;111.37;45.93;;;;;;;2.94;86.86;100285.75;5053001;28;20295;-66
2020/12/09 10:01:25;;;;;;;110.77;45.27;;;;;;;2.96;86.99;100283.94;5053585;28;20206;-66
2020/12/09 10:03:52;;;;;;;105.43;43.43;;;;;;;2.99;87.02;100281.19;5053442;28;20202;-66
2020/12/09 10:06:19;;;;;;;103.20;44.17;;;;;;;2.99;87.38;100274.16;5051894;28;20283;-67
2020/12/09 10:08:46;;;;;;;100.97;43.00;;;;;;;3.00;86.86;100270.63;5053602;28;20225;-66
2020/12/09 10:11:12;;;;;;;116.83;44.20;;;;;;;3.02;86.62;100267.94;5052829;28;20210;-67
2020/12/09 10:13:38;;;;;;;101.37;42.90;;;;;;;3.05;86.52;100267.78;5052515;28;20237;-66
2020/12/09 10:16:04;;;;;;;109.37;43.43;;;;;;;3.06;87.04;100272.13;5053213;28;20197;-67
2020/12/09 10:18:30;;;;;;;111.83;44.53;;;;;;;3.07;86.47;100263.31;5051650;28;20701;-67
2020/12/09 10:20:57;;;;;;;99.57;42.27;;;;;;;3.10;86.88;100271.09;5053039;28;20300;-65
2020/12/09 10:23:24;;;;;;;117.07;46.00;;;;;;;3.09;86.55;100264.97;5052353;28;20210;-65
2020/12/09 10:25:50;;;;;;;101.57;41.73;;;;;;;3.11;86.92;100264.94;5052958;28;20225;-67
2020/12/09 10:28:16;;;;;;;108.60;44.43;;;;;;;3.12;86.33;100261.38;5052441;28;20320;-66
2020/12/09 10:30:46;;;;;;;117.80;45.33;;;;;;;3.14;86.27;100256.91;5052182;28;20285;-67
2020/12/09 10:33:12;;;;;;;113.27;46.37;;;;;;;3.16;86.22;100259.50;5052492;28;20210;-67
2020/12/09 10:35:39;;;;;;;117.90;44.43;;;;;;;3.19;86.66;100249.72;5051947;28;20225;-66
2020/12/09 10:38:06;;;;;;;122.83;46.40;;;;;;;3.22;87.01;100243.47;5052736;28;20226;-67
2020/12/09 10:40:32;;;;;;;113.60;46.60;;;;;;;3.23;86.11;100251.28;5051629;28;20206;-67
2020/12/09 10:42:58;;;;;;;102.27;39.30;;;;;;;3.24;85.89;100257.41;5052234;28;20222;-67
2020/12/09 10:45:24;;;;;;;108.87;40.23;;;;;;;3.24;86.32;100252.13;5052445;28;20233;-65
2020/12/09 10:47:50;;;;;;;102.43;39.70;;;;;;;3.24;86.29;100246.88;5051473;28;20229;-67
2020/12/09 10:50:17;;;;;;;100.27;40.10;;;;;;;3.23;86.04;100246.00;5052503;28;20232;-65
2020/12/09 10:52:43;;;;;;;92.23;40.70;;;;;;;3.23;85.61;100247.78;5047872;28;20214;-67
2020/12/09 10:55:10;;;;;;;109.27;44.97;;;;;;;3.23;86.36;100246.00;5042640;28;20217;-67
2020/12/09 10:57:36;;;;;;;94.90;37.60;;;;;;;3.24;86.28;100255.63;5049613;28;20225;-66
2020/12/09 11:00:07;;;;;;;97.23;36.90;;;;;;;3.24;85.60;100258.25;5046707;28;20216;-66
2020/12/09 11:02:33;;;;;;;96.03;37.60;;;;;;;3.22;86.09;100259.25;5051282;28;20208;-66
2020/12/09 11:04:59;;;;;;;91.43;37.03;;;;;;;3.23;85.61;100258.31;5051357;28;20267;-67
2020/12/09 11:07:25;;;;;;;95.40;37.60;;;;;;;3.23;85.41;100259.16;5042671;28;20570;-66
2020/12/09 11:09:51;;;;;;;108.10;42.00;;;;;;;3.21;85.99;100258.41;5037114;28;20293;-67
2020/12/09 11:12:20;;;;;;;98.63;37.67;;;;;;;3.19;85.94;100260.22;5038153;28;20248;-66
2020/12/09 11:14:46;;;;;;;103.70;39.93;;;;;;;3.18;85.99;100263.78;5037240;28;20206;-66